createdAt,value
2023-03-22T00:01:23.342Z,9.59
2023-03-22T00:03:51.832Z,9.32
2023-03-22T00:06:19.364Z,9.31
2023-03-22T00:08:51.293Z,9.33
2023-03-22T00:11:19.712Z,9.31
2023-03-22T00:13:47.089Z,9.27
2023-03-22T00:16:15.209Z,9.33
2023-03-22T00:18:42.155Z,9.27
2023-03-22T00:21:13.940Z,9.24
2023-03-22T00:23:41.424Z,8.93
2023-03-22T00:26:09.815Z,8.97
2023-03-22T00:28:37.009Z,8.96
2023-03-22T00:31:05.411Z,8.96
2023-03-22T00:33:32.844Z,8.98
2023-03-22T00:36:06.068Z,8.82
2023-03-22T00:38:43.861Z,8.82
2023-03-22T00:41:17.040Z,8.84
2023-03-22T00:43:45.264Z,8.61
2023-03-22T00:46:13.893Z,8.75
2023-03-22T00:48:40.720Z,8.71
2023-03-22T00:51:08.944Z,8.62
2023-03-22T00:53:42.389Z,8.58
2023-03-22T00:56:14.332Z,8.56
2023-03-22T00:58:42.697Z,8.61
2023-03-22T01:01:13.930Z,8.52
2023-03-22T01:03:42.800Z,8.53
2023-03-22T01:06:11.055Z,8.45
2023-03-22T01:08:38.856Z,8.03
2023-03-22T01:11:07.411Z,8.02
2023-03-22T01:13:37.571Z,8.04
2023-03-22T01:16:08.481Z,8.06
2023-03-22T01:18:36.097Z,8.07
2023-03-22T01:21:03.106Z,7.98
2023-03-22T01:23:29.929Z,7.93
2023-03-22T01:25:56.663Z,7.88
2023-03-22T01:28:25.798Z,7.81
2023-03-22T01:30:54.418Z,7.75
2023-03-22T01:33:21.296Z,7.73
2023-03-22T01:35:48.111Z,7.64
2023-03-22T01:38:14.936Z,7.55
2023-03-22T01:40:42.230Z,7.41
2023-03-22T01:43:17.359Z,7.40
2023-03-22T01:45:48.512Z,7.29
2023-03-22T01:48:26.020Z,7.27
2023-03-22T01:51:07.295Z,7.13
2023-03-22T01:53:41.142Z,7.10
2023-03-22T01:56:08.942Z,7.02
2023-03-22T01:58:37.554Z,6.95
2023-03-22T02:01:06.835Z,6.89
2023-03-22T02:03:59.471Z,6.79
2023-03-22T02:06:27.000Z,6.70
2023-03-22T02:08:58.052Z,6.66
2023-03-22T02:11:42.291Z,6.67
2023-03-22T02:15:01.858Z,6.54
2023-03-22T02:18:01.785Z,6.42
2023-03-22T02:20:49.822Z,6.34
2023-03-22T02:23:42.856Z,6.31
2023-03-22T02:26:53.477Z,6.31
2023-03-22T02:29:40.562Z,6.29
2023-03-22T02:32:19.288Z,6.24
2023-03-22T02:35:27.739Z,6.05
2023-03-22T02:38:45.957Z,6.05
2023-03-22T02:41:33.858Z,6.03
2023-03-22T02:44:37.069Z,5.97
2023-03-22T02:47:40.337Z,5.93
2023-03-22T02:50:15.453Z,5.86
2023-03-22T02:53:06.175Z,5.76
2023-03-22T02:56:06.765Z,5.71
2023-03-22T02:58:46.032Z,5.64
2023-03-22T03:01:26.154Z,5.48
2023-03-22T03:03:59.934Z,5.32
2023-03-22T03:06:32.637Z,5.26
2023-03-22T03:09:05.185Z,5.10
2023-03-22T03:11:32.776Z,5.06
2023-03-22T03:13:59.590Z,5.10
2023-03-22T03:16:29.528Z,5.01
2023-03-22T03:19:29.024Z,4.87
2023-03-22T03:22:10.032Z,4.82
2023-03-22T03:24:45.229Z,4.87
2023-03-22T03:27:27.482Z,4.86
2023-03-22T03:30:12.608Z,4.86
2023-03-22T03:32:47.876Z,4.76
2023-03-22T03:35:25.599Z,4.57
2023-03-22T03:38:10.011Z,4.25
2023-03-22T03:40:51.229Z,4.26
2023-03-22T03:43:19.053Z,4.25
2023-03-22T03:45:46.232Z,4.31
2023-03-22T03:48:22.650Z,4.26
2023-03-22T03:50:52.764Z,4.16
2023-03-22T03:53:19.507Z,4.23
2023-03-22T03:55:46.774Z,4.22
2023-03-22T03:58:13.505Z,4.25
2023-03-22T04:00:40.479Z,4.28
2023-03-22T04:03:07.446Z,4.15
2023-03-22T04:05:34.393Z,4.09
2023-03-22T04:08:01.259Z,3.88
2023-03-22T04:10:28.016Z,3.71
2023-03-22T04:12:54.844Z,3.68
2023-03-22T04:15:21.697Z,3.68
2023-03-22T04:17:48.494Z,3.64
2023-03-22T04:20:15.922Z,3.48
2023-03-22T04:22:43.087Z,3.62
2023-03-22T04:25:12.924Z,3.67
2023-03-22T04:27:40.958Z,3.54
2023-03-22T04:30:18.952Z,3.63
2023-03-22T04:32:50.005Z,3.54
2023-03-22T04:35:17.642Z,3.42
2023-03-22T04:37:45.800Z,3.42
2023-03-22T04:40:16.204Z,3.35
2023-03-22T04:42:44.321Z,3.50
2023-03-22T04:45:13.228Z,3.51
2023-03-22T04:47:40.401Z,3.45
2023-03-22T04:50:08.374Z,3.34
2023-03-22T04:52:35.355Z,3.31
2023-03-22T04:55:02.268Z,3.31
2023-03-22T04:57:29.076Z,3.28
2023-03-22T04:59:55.993Z,3.38
2023-03-22T05:02:22.874Z,3.27
2023-03-22T05:04:49.676Z,3.16
2023-03-22T05:07:16.517Z,3.16
2023-03-22T05:09:43.275Z,3.07
2023-03-22T05:12:10.028Z,2.95
2023-03-22T05:14:36.860Z,2.90
2023-03-22T05:17:04.106Z,2.81
2023-03-22T05:19:31.556Z,2.80
2023-03-22T05:22:02.248Z,2.87
2023-03-22T05:24:33.057Z,2.66
2023-03-22T05:27:03.415Z,2.57
2023-03-22T05:29:37.047Z,2.56
2023-03-22T05:32:04.690Z,2.37
2023-03-22T05:34:36.007Z,2.00
2023-03-22T05:37:04.244Z,2.00
2023-03-22T05:40:10.581Z,2.04
2023-03-22T05:49:52.826Z,2.68
2023-03-22T05:53:08.994Z,2.44
2023-03-22T06:01:53.676Z,2.27
2023-03-22T06:04:21.446Z,2.24
2023-03-22T06:06:49.355Z,2.23
2023-03-22T06:09:18.080Z,2.47
2023-03-22T06:11:45.615Z,2.11
2023-03-22T06:14:12.804Z,1.99
2023-03-22T06:16:39.645Z,2.42
2023-03-22T06:19:07.024Z,2.40
2023-03-22T06:21:33.799Z,2.62
2023-03-22T06:24:00.648Z,2.57
2023-03-22T06:26:27.531Z,2.60
2023-03-22T06:28:54.442Z,2.40
2023-03-22T06:31:21.328Z,2.62
2023-03-22T06:33:48.243Z,2.58
2023-03-22T06:36:15.038Z,2.71
2023-03-22T06:38:42.026Z,2.71
2023-03-22T06:41:08.836Z,2.67
2023-03-22T06:43:35.674Z,2.84
2023-03-22T06:46:02.490Z,2.90
2023-03-22T06:48:29.519Z,2.82
2023-03-22T06:50:56.397Z,2.93
2023-03-22T06:53:23.242Z,3.01
2023-03-22T06:55:50.137Z,3.01
2023-03-22T06:58:16.948Z,2.84
2023-03-22T07:00:43.872Z,2.89
2023-03-22T07:03:10.837Z,3.08
2023-03-22T07:05:37.670Z,2.92
2023-03-22T07:08:04.691Z,3.15
2023-03-22T07:10:31.497Z,2.95
2023-03-22T07:12:58.469Z,3.25
2023-03-22T07:15:25.248Z,3.37
2023-03-22T07:17:52.452Z,3.53
2023-03-22T07:20:20.143Z,3.54
2023-03-22T07:22:47.117Z,3.74
2023-03-22T07:25:13.851Z,3.92
2023-03-22T07:27:40.763Z,4.17
2023-03-22T07:30:09.807Z,4.35
2023-03-22T07:32:36.721Z,4.49
2023-03-22T07:35:03.585Z,4.75
2023-03-22T07:37:30.700Z,5.08
2023-03-22T07:39:57.519Z,5.21
2023-03-22T07:42:24.283Z,5.47
2023-03-22T07:44:51.236Z,5.69
2023-03-22T07:47:27.228Z,5.86
2023-03-22T07:50:01.510Z,6.12
2023-03-22T07:52:28.295Z,6.36
2023-03-22T07:54:55.031Z,6.57
2023-03-22T07:57:21.812Z,6.93
2023-03-22T07:59:48.591Z,7.14
2023-03-22T08:02:16.286Z,7.29
2023-03-22T08:04:43.133Z,7.57
2023-03-22T08:07:10.182Z,7.80
2023-03-22T08:09:37.775Z,8.20
2023-03-22T08:12:04.982Z,8.44
2023-03-22T08:14:36.643Z,8.73
2023-03-22T08:17:06.150Z,8.97
2023-03-22T08:19:34.326Z,9.22
2023-03-22T08:22:02.114Z,9.56
2023-03-22T08:24:28.989Z,9.81
2023-03-22T08:26:56.527Z,10.06
2023-03-22T08:29:23.820Z,10.31
2023-03-22T08:31:51.492Z,10.57
2023-03-22T08:34:18.386Z,10.78
2023-03-22T08:36:45.349Z,10.97
2023-03-22T08:39:12.376Z,11.27
2023-03-22T08:41:40.347Z,11.60
2023-03-22T08:44:07.448Z,11.66
2023-03-22T08:46:34.424Z,11.78
2023-03-22T08:49:02.764Z,11.90
2023-03-22T08:51:31.513Z,12.10
2023-03-22T08:54:00.356Z,12.16
2023-03-22T08:56:27.731Z,12.14
2023-03-22T08:58:54.581Z,12.31
2023-03-22T09:01:21.782Z,12.61
2023-03-22T09:03:48.718Z,12.81
2023-03-22T09:06:15.594Z,12.88
2023-03-22T09:08:42.563Z,13.00
2023-03-22T09:11:10.992Z,13.03
2023-03-22T09:13:38.157Z,13.05
2023-03-22T09:16:08.929Z,13.46
2023-03-22T09:18:39.944Z,13.45
2023-03-22T09:21:08.709Z,13.52
2023-03-22T09:23:38.059Z,13.81
2023-03-22T09:26:08.933Z,13.83
2023-03-22T09:28:36.812Z,13.72
2023-03-22T09:31:08.003Z,13.88
2023-03-22T09:33:36.712Z,14.17
2023-03-22T09:36:04.354Z,14.26
2023-03-22T09:38:33.757Z,14.09
2023-03-22T09:41:12.365Z,14.37
2023-03-22T09:43:45.059Z,14.61
2023-03-22T09:46:29.970Z,14.46
2023-03-22T09:49:00.018Z,14.62
2023-03-22T09:51:45.479Z,14.90
2023-03-22T09:54:34.615Z,15.02
2023-03-22T09:57:37.602Z,15.02
2023-03-22T10:00:21.143Z,15.17
2023-03-22T10:03:10.792Z,15.38
2023-03-22T10:06:14.289Z,15.50
2023-03-22T10:09:01.904Z,15.70
2023-03-22T10:11:50.056Z,15.56
2023-03-22T10:14:42.549Z,15.49
2023-03-22T10:17:18.783Z,15.69
2023-03-22T10:20:09.558Z,15.75
2023-03-22T10:22:41.141Z,16.15
2023-03-22T10:25:09.994Z,16.44
2023-03-22T10:27:38.130Z,16.57
2023-03-22T10:30:20.273Z,16.75
2023-03-22T10:32:58.385Z,17.02
2023-03-22T10:35:26.091Z,16.90
2023-03-22T10:37:55.367Z,16.88
2023-03-22T10:40:32.183Z,17.07
2023-03-22T10:43:22.648Z,17.58
2023-03-22T10:45:52.289Z,17.40
2023-03-22T10:48:33.260Z,17.35
2023-03-22T10:51:04.638Z,16.89
2023-03-22T10:53:46.883Z,17.64
2023-03-22T10:56:18.864Z,17.65
2023-03-22T10:58:47.163Z,17.87
2023-03-22T11:01:17.362Z,18.03
2023-03-22T11:03:49.903Z,17.99
2023-03-22T11:06:30.068Z,17.77
2023-03-22T11:09:22.473Z,17.78
2023-03-22T11:12:00.840Z,17.84
2023-03-22T11:14:37.003Z,17.76
2023-03-22T11:17:06.460Z,17.79
2023-03-22T11:19:40.015Z,17.89
2023-03-22T11:22:25.746Z,17.32
2023-03-22T11:24:52.869Z,17.68
2023-03-22T11:27:31.342Z,18.09
2023-03-22T11:30:09.589Z,17.67
2023-03-22T11:32:39.331Z,18.16
2023-03-22T11:35:28.019Z,18.26
2023-03-22T11:37:56.492Z,17.94
2023-03-22T11:40:32.849Z,18.45
2023-03-22T11:43:26.993Z,18.66
2023-03-22T11:45:58.154Z,18.77
2023-03-22T11:48:30.151Z,18.87
2023-03-22T11:51:07.502Z,18.44
2023-03-22T11:53:41.143Z,18.71
2023-03-22T11:56:12.775Z,18.96
2023-03-22T11:58:42.370Z,19.07
2023-03-22T12:01:19.860Z,18.88
2023-03-22T12:03:52.650Z,18.80
2023-03-22T12:06:29.502Z,18.99
2023-03-22T12:09:10.713Z,19.18
2023-03-22T12:11:46.005Z,19.08
2023-03-22T12:14:51.274Z,19.54
2023-03-22T12:17:28.428Z,19.14
2023-03-22T12:20:07.015Z,19.62
2023-03-22T12:22:41.931Z,19.46
2023-03-22T12:25:23.166Z,19.67
2023-03-22T12:28:16.494Z,19.84
2023-03-22T12:30:56.525Z,19.91
2023-03-22T12:33:41.448Z,19.28
2023-03-22T12:36:14.853Z,19.32
2023-03-22T12:38:49.957Z,19.48
2023-03-22T12:41:26.428Z,19.76
2023-03-22T12:43:56.132Z,19.86
2023-03-22T12:46:26.775Z,19.88
2023-03-22T12:49:16.519Z,19.96
2023-03-22T12:51:46.846Z,19.60
2023-03-22T12:54:16.953Z,19.58
2023-03-22T12:56:46.218Z,19.64
2023-03-22T12:59:26.791Z,20.01
2023-03-22T13:02:10.128Z,19.98
2023-03-22T13:04:37.018Z,20.08
2023-03-22T13:07:18.044Z,20.01
2023-03-22T13:09:50.841Z,19.77
2023-03-22T13:12:17.574Z,19.87
2023-03-22T13:15:01.009Z,19.81
2023-03-22T13:17:27.876Z,19.91
2023-03-22T13:20:24.001Z,19.86
2023-03-22T13:22:51.083Z,20.13
2023-03-22T13:25:19.124Z,20.40
2023-03-22T13:27:46.018Z,20.39
2023-03-22T13:30:28.108Z,20.72
2023-03-22T13:33:20.779Z,20.44
2023-03-22T13:35:54.072Z,20.82
2023-03-22T13:38:25.216Z,20.84
2023-03-22T13:41:00.875Z,20.60
2023-03-22T13:43:53.078Z,20.75
2023-03-22T13:46:22.890Z,21.11
2023-03-22T13:48:53.013Z,21.21
2023-03-22T13:51:30.530Z,21.05
2023-03-22T13:54:18.196Z,21.31
2023-03-22T13:56:56.566Z,21.40
2023-03-22T13:59:32.324Z,21.49
2023-03-22T14:02:30.152Z,21.63
2023-03-22T14:05:04.260Z,21.93
2023-03-22T14:07:44.484Z,22.17
2023-03-22T14:10:39.073Z,21.72
2023-03-22T14:13:16.877Z,22.12
2023-03-22T14:15:51.692Z,22.11
2023-03-22T14:18:25.977Z,22.20
2023-03-22T14:21:39.019Z,22.37
2023-03-22T14:52:37.081Z,22.02
2023-03-22T14:55:11.621Z,21.97
2023-03-22T14:57:47.441Z,21.74
2023-03-22T15:00:19.426Z,21.22
2023-03-22T15:03:03.838Z,21.49
2023-03-22T15:05:40.676Z,21.46
2023-03-22T15:08:17.381Z,21.17
2023-03-22T15:10:49.442Z,21.38
2023-03-22T15:13:17.730Z,21.33
2023-03-22T15:15:46.175Z,21.75
2023-03-22T15:18:17.279Z,21.98
2023-03-22T15:20:47.646Z,21.77
2023-03-22T15:23:16.245Z,21.64
2023-03-22T15:25:49.104Z,21.59
2023-03-22T15:28:21.533Z,21.78
2023-03-22T15:30:53.047Z,21.82
2023-03-22T15:33:27.935Z,21.68
2023-03-22T15:35:56.721Z,21.65
2023-03-22T15:38:46.722Z,21.05
2023-03-22T15:41:26.297Z,20.73
2023-03-22T15:44:25.844Z,20.77
2023-03-22T15:47:06.259Z,20.56
2023-03-22T15:49:33.097Z,20.38
2023-03-22T15:52:12.931Z,20.14
2023-03-22T15:55:11.107Z,19.92
2023-03-22T15:57:52.976Z,19.86
2023-03-22T16:00:21.955Z,19.84
2023-03-22T16:03:15.281Z,19.20
2023-03-22T16:05:45.872Z,19.38
2023-03-22T16:08:15.615Z,19.27
2023-03-22T16:10:47.085Z,19.35
2023-03-22T16:13:25.194Z,19.21
2023-03-22T16:15:52.755Z,19.15
2023-03-22T16:18:22.213Z,19.08
2023-03-22T16:20:51.368Z,18.87
2023-03-22T16:23:22.133Z,18.83
2023-03-22T16:25:49.665Z,18.80
2023-03-22T16:28:16.800Z,18.78
2023-03-22T16:30:45.086Z,18.78
2023-03-22T16:33:14.999Z,18.85
2023-03-22T16:35:42.327Z,18.60
2023-03-22T16:38:14.717Z,18.54
2023-03-22T16:40:52.575Z,18.56
2023-03-22T16:43:20.394Z,18.46
2023-03-22T16:45:49.018Z,18.25
2023-03-22T16:48:16.364Z,17.92
2023-03-22T16:50:46.143Z,18.05
2023-03-22T16:53:16.971Z,17.63
2023-03-22T16:55:46.309Z,17.65
2023-03-22T16:58:14.572Z,17.64
2023-03-22T17:00:41.943Z,17.47
2023-03-22T17:03:13.243Z,17.27
2023-03-22T17:05:40.155Z,17.15
2023-03-22T17:08:18.431Z,16.85
2023-03-22T17:10:46.443Z,16.68
2023-03-22T17:13:18.057Z,16.75
2023-03-22T17:15:48.684Z,16.65
2023-03-22T17:18:16.023Z,16.34
2023-03-22T17:20:46.698Z,16.20
2023-03-22T17:23:14.670Z,16.15
2023-03-22T17:25:44.809Z,16.09
2023-03-22T17:28:13.122Z,15.91
2023-03-22T17:30:40.669Z,15.66
2023-03-22T17:33:09.817Z,15.66
2023-03-22T17:35:37.427Z,15.52
2023-03-22T17:38:04.894Z,15.31
2023-03-22T17:40:45.227Z,15.28
2023-03-22T17:43:18.152Z,15.07
2023-03-22T17:48:18.404Z,14.80
2023-03-22T17:50:45.425Z,14.30
2023-03-22T17:53:29.140Z,14.08
2023-03-22T17:56:30.946Z,14.06
2023-03-22T17:58:46.983Z,13.72
2023-03-22T18:01:18.810Z,13.33
2023-03-22T18:03:46.033Z,13.11
2023-03-22T18:06:12.966Z,13.08
2023-03-22T18:08:40.019Z,13.07
2023-03-22T18:11:07.167Z,12.92
2023-03-22T18:13:35.472Z,12.64
2023-03-22T18:16:02.414Z,12.67
2023-03-22T18:18:34.267Z,12.78
2023-03-22T18:21:03.787Z,12.64
2023-03-22T18:23:31.172Z,12.52
2023-03-22T18:26:01.843Z,12.33
2023-03-22T18:28:30.483Z,12.20
2023-03-22T18:30:58.252Z,12.05
2023-03-22T18:33:27.454Z,11.94
2023-03-22T18:35:59.024Z,11.95
2023-03-22T18:38:56.613Z,11.91
2023-03-22T18:41:37.678Z,11.74
2023-03-22T18:44:02.005Z,11.60
2023-03-22T18:46:28.904Z,11.63
2023-03-22T18:48:55.914Z,11.39
2023-03-22T18:51:22.909Z,11.32
2023-03-22T18:53:50.993Z,11.34
2023-03-22T18:56:18.816Z,11.04
2023-03-22T18:58:46.076Z,11.00
2023-03-22T19:01:13.066Z,10.66
2023-03-22T19:03:40.467Z,10.31
2023-03-22T19:06:15.563Z,10.53
2023-03-22T19:08:44.068Z,10.65
2023-03-22T19:11:11.965Z,10.58
2023-03-22T19:14:06.135Z,10.24
2023-03-22T19:16:26.196Z,10.24
2023-03-22T19:18:53.081Z,9.93
2023-03-22T19:21:30.418Z,9.70
2023-03-22T19:23:59.125Z,9.87
2023-03-22T19:26:27.967Z,9.83
2023-03-22T19:28:59.192Z,9.84
2023-03-22T19:31:31.422Z,9.66
2023-03-22T19:33:59.715Z,9.69
2023-03-22T19:36:27.879Z,9.64
2023-03-22T19:38:58.616Z,9.54
2023-03-22T19:43:59.053Z,9.65
2023-03-22T19:46:27.070Z,9.54
2023-03-22T19:48:53.948Z,9.46
2023-03-22T19:51:21.008Z,9.38
2023-03-22T19:54:18.632Z,9.35
2023-03-22T19:56:35.328Z,9.30
2023-03-22T19:59:03.387Z,9.15
2023-03-22T20:01:30.329Z,9.13
2023-03-22T20:03:57.435Z,9.25
2023-03-22T20:06:25.074Z,9.06
2023-03-22T20:08:51.956Z,8.68
2023-03-22T20:11:27.618Z,8.45
2023-03-22T20:14:01.284Z,8.21
2023-03-22T20:16:28.525Z,8.26
2023-03-22T20:18:55.651Z,8.23
2023-03-22T20:21:23.381Z,8.01
2023-03-22T20:23:50.936Z,8.28
2023-03-22T20:26:18.823Z,8.09
2023-03-22T20:28:46.729Z,7.86
2023-03-22T20:31:16.521Z,8.04
2023-03-22T20:33:44.200Z,7.90
2023-03-22T20:36:12.608Z,7.79
2023-03-22T20:38:44.213Z,8.06
2023-03-22T20:41:15.065Z,7.67
2023-03-22T20:43:44.624Z,7.79
2023-03-22T20:46:14.182Z,7.24
2023-03-22T20:48:41.496Z,7.70
2023-03-22T20:51:08.629Z,7.73
2023-03-22T20:53:35.626Z,7.69
2023-03-22T20:56:02.589Z,7.61
2023-03-22T20:58:29.739Z,7.80
2023-03-22T21:00:56.652Z,7.91
2023-03-22T21:03:24.169Z,7.63
2023-03-22T21:05:51.345Z,8.01
2023-03-22T21:08:18.363Z,8.23
2023-03-22T21:10:45.631Z,8.05
2023-03-22T21:13:13.269Z,8.16
2023-03-22T21:15:42.812Z,8.20
2023-03-22T21:18:10.694Z,8.11
2023-03-22T21:20:37.910Z,7.36
2023-03-22T21:23:05.644Z,7.51
2023-03-22T21:25:32.509Z,7.73
2023-03-22T21:27:59.867Z,7.66
2023-03-22T21:30:27.020Z,8.05
2023-03-22T21:32:54.028Z,7.58
2023-03-22T21:35:21.686Z,7.73
2023-03-22T21:37:48.561Z,7.72
2023-03-22T21:40:17.873Z,7.70
2023-03-22T21:42:46.916Z,7.90
2023-03-22T21:45:15.001Z,7.82
2023-03-22T21:47:43.798Z,7.79
2023-03-22T21:50:11.528Z,7.52
2023-03-22T21:52:38.440Z,7.73
2023-03-22T21:55:06.636Z,7.73
2023-03-22T21:57:33.515Z,7.67
2023-03-22T22:00:00.687Z,7.83
2023-03-22T22:02:27.829Z,7.67
2023-03-22T22:04:54.878Z,7.71
2023-03-22T22:07:21.958Z,7.61
2023-03-22T22:09:49.040Z,7.48
2023-03-22T22:12:16.985Z,7.75
2023-03-22T22:14:44.470Z,7.61
2023-03-22T22:17:12.604Z,7.56
2023-03-22T22:19:40.820Z,7.51
2023-03-22T22:22:08.012Z,7.30
2023-03-22T22:24:35.068Z,7.32
2023-03-22T22:27:02.157Z,7.51
2023-03-22T22:29:29.037Z,7.35
2023-03-22T22:31:56.282Z,7.29
2023-03-22T22:34:23.328Z,7.50
2023-03-22T22:36:50.588Z,7.33
2023-03-22T22:39:17.480Z,7.24
2023-03-22T22:41:44.742Z,7.26
2023-03-22T22:44:11.924Z,7.20
2023-03-22T22:46:39.025Z,7.34
2023-03-22T22:49:06.088Z,7.30
2023-03-22T22:51:33.395Z,7.40
2023-03-22T22:54:01.097Z,7.19
2023-03-22T22:56:29.375Z,7.11
2023-03-22T22:58:56.374Z,7.32
2023-03-22T23:01:23.287Z,7.21
2023-03-22T23:03:50.528Z,7.35
2023-03-22T23:06:22.936Z,7.28
2023-03-22T23:08:55.620Z,7.51
2023-03-22T23:11:25.936Z,7.32
2023-03-22T23:13:53.918Z,7.40
2023-03-22T23:16:25.173Z,7.43
2023-03-22T23:18:58.412Z,7.26
2023-03-22T23:21:34.527Z,7.33
2023-03-22T23:24:01.495Z,7.12
2023-03-22T23:26:28.798Z,7.01
2023-03-22T23:28:59.361Z,7.05
2023-03-22T23:31:32.078Z,6.91
2023-03-22T23:34:03.781Z,7.27
2023-03-22T23:36:32.770Z,7.35
2023-03-22T23:39:04.200Z,7.25
2023-03-22T23:41:33.375Z,7.28
2023-03-22T23:44:00.703Z,7.30
2023-03-22T23:46:29.671Z,7.41
2023-03-22T23:48:59.972Z,7.27
2023-03-22T23:51:27.987Z,7.25
2023-03-22T23:53:55.169Z,7.25
2023-03-22T23:56:23.086Z,7.38
2023-03-22T23:58:52.375Z,7.43
